Time;durP1;ratioP1;P1;durP2;ratioP2;P2;SDS_P1;SDS_P2;PMS_P1;PMS_P2;Temp;Humidity;BMP_temperature;BMP_pressure;BME280_temperature;BME280_humidity;BME280_pressure;Samples;Min_cycle;Max_cycle;Signal;HPM_P1;HPM_P2
2022/03/04 00:02:13;;;;;;;33.97;25.10;;;10.40;99.90;;;;;;5029487;28;20415;-71
2022/03/04 00:04:39;;;;;;;34.03;24.60;;;10.50;99.90;;;;;;5029631;28;20404;-71
2022/03/04 00:07:05;;;;;;;32.53;24.13;;;10.50;99.90;;;;;;5025494;28;20510;-71
2022/03/04 00:09:31;;;;;;;36.45;25.27;;;10.50;99.90;;;;;;5031173;28;20462;-71
2022/03/04 00:11:57;;;;;;;36.97;25.70;;;10.50;99.90;;;;;;5030221;28;20138;-72
2022/03/04 00:14:24;;;;;;;33.67;25.13;;;10.50;99.90;;;;;;5029673;28;20111;-72
2022/03/04 00:16:51;;;;;;;36.53;25.38;;;10.50;99.90;;;;;;5029656;28;20017;-72
2022/03/04 00:19:17;;;;;;;34.33;25.50;;;10.60;99.90;;;;;;5026967;28;20038;-71
2022/03/04 00:21:47;;;;;;;35.00;24.95;;;10.50;99.90;;;;;;5029198;28;20130;-72
2022/03/04 00:24:13;;;;;;;35.08;26.48;;;10.50;99.90;;;;;;5029464;28;20394;-72
2022/03/04 00:26:39;;;;;;;33.95;25.58;;;10.50;99.90;;;;;;5029499;28;20116;-72
2022/03/04 00:29:10;;;;;;;32.63;26.55;;;10.50;99.90;;;;;;5029356;28;20025;-72
2022/03/04 00:31:39;;;;;;;37.58;28.58;;;10.40;99.90;;;;;;5029327;28;20096;-72
2022/03/04 00:34:06;;;;;;;38.70;27.50;;;10.50;99.90;;;;;;5029209;28;20041;-72
2022/03/04 00:36:33;;;;;;;36.53;28.73;;;10.50;99.90;;;;;;5034440;28;20025;-71
2022/03/04 00:38:59;;;;;;;40.72;29.98;;;10.60;99.90;;;;;;5033541;28;20037;-72
2022/03/04 00:41:25;;;;;;;40.92;29.30;;;10.50;99.90;;;;;;5029016;28;20040;-72
2022/03/04 00:43:52;;;;;;;38.72;29.85;;;10.60;99.90;;;;;;5032188;28;20099;-72
2022/03/04 00:46:18;;;;;;;43.88;30.73;;;10.70;99.90;;;;;;5028914;28;20119;-72
2022/03/04 00:48:45;;;;;;;38.47;30.10;;;10.60;99.90;;;;;;5031075;28;20060;-72
2022/03/04 00:51:11;;;;;;;39.03;28.63;;;10.60;99.90;;;;;;5032959;28;20037;-72
2022/03/04 00:53:38;;;;;;;38.92;29.90;;;10.50;99.90;;;;;;5032005;28;20052;-72
2022/03/04 00:56:06;;;;;;;36.92;28.55;;;10.50;99.90;;;;;;5031716;28;20035;-72
2022/03/04 00:58:32;;;;;;;46.75;32.50;;;10.50;99.90;;;;;;5028551;28;20029;-71
2022/03/04 01:00:58;;;;;;;39.40;29.45;;;10.50;99.90;;;;;;5029747;28;20037;-72
2022/03/04 01:03:24;;;;;;;40.10;29.85;;;10.30;99.90;;;;;;5034684;28;20041;-72
2022/03/04 01:05:49;;;;;;;34.97;28.80;;;10.30;99.90;;;;;;5029780;28;20376;-72
2022/03/04 01:08:15;;;;;;;35.70;29.52;;;10.30;99.90;;;;;;5033291;28;20078;-72
2022/03/04 01:10:41;;;;;;;36.30;28.80;;;10.20;99.90;;;;;;5031829;28;20014;-72
2022/03/04 01:13:09;;;;;;;35.95;28.35;;;10.20;99.90;;;;;;5034035;28;20057;-71
2022/03/04 01:15:35;;;;;;;35.72;27.67;;;10.10;99.90;;;;;;5037405;28;20021;-71
2022/03/04 01:18:01;;;;;;;38.85;29.17;;;10.20;99.90;;;;;;5035559;28;20132;-71
2022/03/04 01:20:27;;;;;;;34.53;27.02;;;10.10;99.90;;;;;;5035070;28;20522;-72
2022/03/04 01:22:53;;;;;;;32.97;26.95;;;10.10;99.90;;;;;;5033573;28;20066;-71
2022/03/04 01:25:19;;;;;;;35.42;28.00;;;9.90;99.90;;;;;;5031826;28;20014;-72
2022/03/04 01:27:45;;;;;;;36.65;27.73;;;9.90;99.90;;;;;;5032955;28;20128;-71
2022/03/04 01:30:11;;;;;;;34.60;27.83;;;9.80;99.90;;;;;;5031144;28;20530;-72
2022/03/04 01:32:40;;;;;;;36.67;27.63;;;9.80;99.90;;;;;;5029676;28;20033;-72
2022/03/04 01:35:08;;;;;;;38.80;29.30;;;9.70;99.90;;;;;;5031887;28;20109;-72
2022/03/04 01:37:34;;;;;;;40.88;27.17;;;9.50;99.90;;;;;;5022154;28;20025;-72
2022/03/04 01:40:01;;;;;;;35.13;29.05;;;9.50;99.90;;;;;;5031075;28;20471;-72
2022/03/04 01:42:27;;;;;;;38.33;28.23;;;9.30;99.90;;;;;;5033257;28;20033;-72
2022/03/04 01:44:52;;;;;;;36.00;26.63;;;9.30;99.90;;;;;;5028694;28;20031;-71
2022/03/04 01:47:18;;;;;;;39.13;29.05;;;9.20;99.90;;;;;;5029099;28;20044;-71
2022/03/04 01:49:44;;;;;;;40.92;29.83;;;9.20;99.90;;;;;;5029860;28;20033;-71
2022/03/04 01:52:10;;;;;;;38.78;28.83;;;9.20;99.90;;;;;;5029605;28;20025;-71
2022/03/04 01:54:39;;;;;;;40.10;29.75;;;9.20;99.90;;;;;;5029009;28;20108;-72
2022/03/04 01:57:05;;;;;;;43.25;31.63;;;9.20;99.90;;;;;;5032393;28;20030;-72
2022/03/04 01:59:31;;;;;;;42.47;31.50;;;9.40;99.90;;;;;;5029356;28;20612;-72
2022/03/04 02:01:56;;;;;;;44.00;33.35;;;9.40;99.90;;;;;;5027805;28;20033;-72
2022/03/04 02:04:24;;;;;;;41.30;31.30;;;9.40;99.90;;;;;;5029494;28;20025;-72
2022/03/04 02:06:50;;;;;;;35.60;26.80;;;9.50;99.90;;;;;;5030008;28;20026;-71
2022/03/04 02:09:17;;;;;;;36.08;26.95;;;9.60;99.90;;;;;;5031169;28;20079;-72
2022/03/04 02:11:44;;;;;;;32.85;25.10;;;9.60;99.90;;;;;;5029233;28;20471;-72
2022/03/04 02:14:13;;;;;;;33.72;25.58;;;9.60;99.90;;;;;;5029331;28;20037;-71
2022/03/04 02:16:48;;;;;;;34.05;24.92;;;9.60;99.90;;;;;;5028906;28;20029;-71
2022/03/04 02:19:15;;;;;;;35.83;26.27;;;9.50;99.90;;;;;;5029179;28;20026;-72
2022/03/04 02:21:51;;;;;;;35.75;25.63;;;9.60;99.90;;;;;;5029074;28;20099;-72
2022/03/04 02:24:17;;;;;;;32.80;24.73;;;9.60;99.90;;;;;;5031095;28;20022;-72
2022/03/04 02:26:44;;;;;;;32.28;24.50;;;9.60;99.90;;;;;;5029479;28;20060;-72
2022/03/04 02:29:10;;;;;;;31.05;24.67;;;9.50;99.90;;;;;;5028689;28;20030;-71
2022/03/04 02:31:36;;;;;;;34.65;24.98;;;9.50;99.90;;;;;;5044243;28;20032;-72
2022/03/04 02:34:02;;;;;;;34.72;24.70;;;9.40;99.90;;;;;;5031047;28;20538;-71
2022/03/04 02:36:28;;;;;;;31.10;24.23;;;9.40;99.90;;;;;;5032526;28;20105;-71
2022/03/04 02:38:54;;;;;;;33.10;24.95;;;9.40;99.90;;;;;;5029053;28;20117;-72
2022/03/04 02:41:20;;;;;;;30.17;22.83;;;9.50;99.90;;;;;;5028131;28;20049;-71
2022/03/04 02:43:46;;;;;;;28.08;21.88;;;9.60;99.90;;;;;;5030431;28;20040;-71
2022/03/04 02:46:13;;;;;;;29.02;22.27;;;9.60;99.90;;;;;;5029021;28;20065;-72
2022/03/04 02:48:39;;;;;;;31.38;22.38;;;9.50;99.90;;;;;;5030670;28;20065;-72
2022/03/04 02:51:05;;;;;;;31.08;22.70;;;9.50;99.90;;;;;;5030270;28;20032;-71
2022/03/04 02:53:31;;;;;;;27.13;21.67;;;9.60;99.90;;;;;;5028413;28;20025;-71
2022/03/04 02:55:56;;;;;;;29.63;23.15;;;9.50;99.90;;;;;;5028115;28;20029;-72
2022/03/04 02:58:22;;;;;;;34.22;26.02;;;9.40;99.90;;;;;;5028033;28;20024;-72
2022/03/04 03:00:48;;;;;;;37.20;28.00;;;9.20;99.90;;;;;;5030186;28;20108;-72
2022/03/04 03:03:14;;;;;;;35.45;26.30;;;9.00;99.90;;;;;;5029849;28;20037;-72
2022/03/04 03:05:40;;;;;;;35.05;25.65;;;8.90;99.90;;;;;;5028492;28;20108;-72
2022/03/04 03:08:05;;;;;;;29.90;23.73;;;8.90;99.90;;;;;;5028346;28;20073;-71
2022/03/04 03:10:34;;;;;;;27.30;22.10;;;8.90;99.90;;;;;;5028182;28;20014;-72
2022/03/04 03:13:00;;;;;;;24.88;19.48;;;9.00;99.90;;;;;;5021650;28;20402;-71
2022/03/04 03:15:26;;;;;;;25.25;20.33;;;9.20;99.90;;;;;;5031348;28;20107;-72
2022/03/04 03:17:52;;;;;;;23.58;19.00;;;9.30;99.90;;;;;;5028078;28;20479;-72
2022/03/04 03:20:17;;;;;;;27.95;18.48;;;9.30;99.90;;;;;;5028475;28;20070;-72
2022/03/04 03:22:43;;;;;;;23.17;17.10;;;9.40;99.90;;;;;;5028036;28;20045;-72
2022/03/04 03:25:09;;;;;;;22.92;17.20;;;9.70;99.90;;;;;;5028050;28;20403;-71
2022/03/04 03:27:35;;;;;;;22.33;16.70;;;9.80;99.90;;;;;;5030460;28;20030;-72
2022/03/04 03:30:02;;;;;;;20.77;16.55;;;9.90;99.90;;;;;;5028639;28;20029;-72
2022/03/04 03:32:28;;;;;;;26.27;17.25;;;10.00;99.90;;;;;;5028212;28;20026;-71
2022/03/04 03:34:54;;;;;;;21.35;16.02;;;10.00;99.90;;;;;;5030223;28;20160;-71
2022/03/04 03:37:19;;;;;;;21.30;16.50;;;10.10;99.90;;;;;;5028200;28;20025;-72
2022/03/04 03:39:46;;;;;;;21.80;16.58;;;10.00;99.90;;;;;;5030306;28;20529;-72
2022/03/04 03:42:11;;;;;;;22.65;16.75;;;10.20;99.90;;;;;;5028874;28;20072;-72
2022/03/04 03:44:37;;;;;;;22.30;16.13;;;10.20;99.90;;;;;;5027782;28;20471;-72
2022/03/04 03:47:03;;;;;;;20.80;15.50;;;10.20;99.90;;;;;;5028478;28;20478;-72
2022/03/04 03:49:29;;;;;;;20.38;15.98;;;10.30;99.90;;;;;;5027373;28;20529;-71
2022/03/04 03:51:55;;;;;;;21.35;16.40;;;10.20;99.90;;;;;;5028746;28;20105;-72
2022/03/04 03:54:20;;;;;;;26.50;17.25;;;10.30;99.90;;;;;;5030282;28;20024;-71
2022/03/04 03:56:46;;;;;;;22.52;15.80;;;10.30;99.90;;;;;;5027041;28;20067;-72
2022/03/04 03:59:12;;;;;;;21.08;15.82;;;10.40;99.90;;;;;;5027849;28;20064;-72
2022/03/04 04:01:38;;;;;;;21.40;17.20;;;10.30;99.90;;;;;;5027668;28;20033;-71
2022/03/04 04:04:08;;;;;;;21.88;16.40;;;10.30;99.90;;;;;;5027878;28;20448;-72
2022/03/04 04:06:33;;;;;;;24.10;15.70;;;10.00;99.90;;;;;;5031136;28;20028;-72
2022/03/04 04:09:02;;;;;;;19.95;15.70;;;10.20;99.90;;;;;;5030158;28;20112;-72
2022/03/04 04:11:28;;;;;;;21.35;15.65;;;10.30;99.90;;;;;;5031213;28;20451;-72
2022/03/04 04:13:56;;;;;;;21.83;15.73;;;10.40;99.90;;;;;;5031605;28;20056;-72
2022/03/04 04:16:22;;;;;;;22.38;15.27;;;10.40;99.90;;;;;;5032330;28;20035;-72
2022/03/04 04:18:48;;;;;;;20.95;15.45;;;10.30;99.90;;;;;;5033266;28;20143;-72
2022/03/04 04:21:13;;;;;;;22.83;17.38;;;10.30;99.90;;;;;;5032861;28;20032;-72
2022/03/04 04:23:39;;;;;;;23.63;17.25;;;10.20;99.90;;;;;;5031097;28;20458;-72
2022/03/04 04:26:06;;;;;;;29.17;24.15;;;9.90;99.90;;;;;;5031216;28;20056;-72
2022/03/04 04:28:33;;;;;;;27.02;23.35;;;9.30;99.90;;;;;;5031284;28;20057;-72
2022/03/04 04:30:59;;;;;;;28.42;21.40;;;8.70;99.90;;;;;;5032776;28;20042;-72
2022/03/04 04:33:25;;;;;;;25.35;21.45;;;8.40;99.90;;;;;;5034489;28;20075;-72
2022/03/04 04:35:50;;;;;;;28.55;21.83;;;8.30;99.90;;;;;;5033537;28;20026;-72
2022/03/04 04:38:16;;;;;;;27.75;22.55;;;8.20;99.90;;;;;;5032830;28;20029;-72
2022/03/04 04:40:42;;;;;;;26.52;22.73;;;8.10;99.90;;;;;;5032215;28;20533;-72
2022/03/04 04:43:07;;;;;;;31.58;22.70;;;7.90;99.90;;;;;;5032638;28;20033;-71
2022/03/04 04:45:33;;;;;;;25.55;20.77;;;7.90;99.90;;;;;;5034571;28;20029;-72
2022/03/04 04:47:59;;;;;;;27.92;22.95;;;8.00;99.90;;;;;;5031445;28;20130;-72
2022/03/04 04:50:24;;;;;;;27.27;21.08;;;8.20;99.90;;;;;;5031466;28;20111;-71
2022/03/04 04:52:50;;;;;;;27.25;20.85;;;8.40;99.90;;;;;;5030943;28;20518;-72
2022/03/04 04:55:16;;;;;;;25.23;21.15;;;8.40;99.90;;;;;;5030888;28;20033;-72
2022/03/04 04:57:41;;;;;;;29.98;22.10;;;8.50;99.90;;;;;;5033537;28;20410;-72
2022/03/04 05:00:08;;;;;;;27.40;22.38;;;8.50;99.90;;;;;;5031526;28;20080;-72
2022/03/04 05:02:33;;;;;;;28.38;22.75;;;8.50;99.90;;;;;;5030813;28;20045;-72
2022/03/04 05:04:59;;;;;;;32.95;22.67;;;8.50;99.90;;;;;;5030625;28;20093;-72
2022/03/04 05:07:25;;;;;;;24.70;20.75;;;8.40;99.90;;;;;;5031134;28;20023;-71
2022/03/04 05:09:51;;;;;;;26.27;20.33;;;8.40;99.90;;;;;;5031558;28;20972;-72
2022/03/04 05:12:17;;;;;;;23.90;21.33;;;8.30;99.90;;;;;;5032272;28;20026;-72
2022/03/04 05:14:42;;;;;;;24.38;20.33;;;8.30;99.90;;;;;;5030345;28;20446;-72
2022/03/04 05:17:08;;;;;;;27.00;20.90;;;8.30;99.90;;;;;;5032400;28;20030;-72
2022/03/04 05:19:34;;;;;;;26.95;22.05;;;8.20;99.90;;;;;;5032970;28;20038;-72
2022/03/04 05:21:59;;;;;;;29.00;23.55;;;8.20;99.90;;;;;;5032556;28;20100;-72
2022/03/04 05:24:25;;;;;;;28.63;22.90;;;8.00;99.90;;;;;;5033262;28;20116;-72
2022/03/04 05:26:51;;;;;;;32.88;24.48;;;7.90;99.90;;;;;;5032356;28;20028;-72
2022/03/04 05:29:17;;;;;;;31.45;23.27;;;7.80;99.90;;;;;;5032973;28;20125;-72
2022/03/04 05:31:43;;;;;;;28.27;22.15;;;7.80;99.90;;;;;;5032204;28;20025;-72
2022/03/04 05:34:09;;;;;;;29.95;23.20;;;8.10;99.90;;;;;;5031000;28;20095;-72
2022/03/04 05:36:39;;;;;;;31.58;22.58;;;8.00;99.90;;;;;;5032814;28;20030;-72
2022/03/04 05:39:06;;;;;;;31.60;22.80;;;8.10;99.90;;;;;;5033172;28;20033;-72
2022/03/04 05:41:31;;;;;;;28.17;23.08;;;8.10;99.90;;;;;;5031978;28;20060;-72
2022/03/04 05:43:57;;;;;;;27.48;22.88;;;8.10;99.90;;;;;;5031784;28;20053;-72
2022/03/04 05:46:23;;;;;;;28.77;23.08;;;8.20;99.90;;;;;;5032620;28;20033;-72
2022/03/04 05:48:49;;;;;;;28.30;23.85;;;8.30;99.90;;;;;;5031632;28;20053;-72
2022/03/04 05:51:15;;;;;;;31.50;23.35;;;8.40;99.90;;;;;;5032951;28;20033;-72
2022/03/04 05:53:41;;;;;;;26.83;22.38;;;8.40;99.90;;;;;;5031449;28;20014;-72
2022/03/04 05:56:10;;;;;;;26.13;21.83;;;8.50;99.90;;;;;;5031378;28;20533;-71
2022/03/04 05:58:40;;;;;;;29.48;21.00;;;8.50;99.90;;;;;;5031998;28;20026;-71
2022/03/04 06:01:08;;;;;;;25.83;19.88;;;8.60;99.90;;;;;;5031770;28;20033;-71
2022/03/04 06:03:35;;;;;;;24.63;19.55;;;8.80;99.90;;;;;;5047865;28;20391;-71
2022/03/04 06:06:01;;;;;;;26.25;18.20;;;8.80;99.90;;;;;;5032565;28;20018;-71
2022/03/04 06:08:27;;;;;;;26.23;17.73;;;8.90;99.90;;;;;;5031651;28;20167;-71
2022/03/04 06:10:53;;;;;;;26.15;18.67;;;9.00;99.90;;;;;;5031633;28;20021;-72
2022/03/04 06:13:18;;;;;;;26.48;19.15;;;9.00;99.90;;;;;;5031625;28;20398;-71
2022/03/04 06:15:44;;;;;;;22.65;18.00;;;9.10;99.90;;;;;;5031800;28;20021;-75
2022/03/04 06:18:10;;;;;;;23.50;17.63;;;9.10;99.90;;;;;;5032782;28;20022;-71
2022/03/04 06:20:36;;;;;;;22.30;17.73;;;9.00;99.90;;;;;;5030681;28;20056;-72
2022/03/04 06:23:01;;;;;;;25.33;19.88;;;9.00;99.90;;;;;;5031055;28;20057;-72
2022/03/04 06:25:27;;;;;;;26.45;19.75;;;9.10;99.90;;;;;;5031108;28;20484;-73
2022/03/04 06:27:55;;;;;;;20.42;17.20;;;9.10;99.90;;;;;;5030552;28;20503;-73
2022/03/04 06:30:21;;;;;;;20.48;15.82;;;9.10;99.90;;;;;;5032083;28;20433;-72
2022/03/04 06:32:49;;;;;;;22.17;16.48;;;9.20;99.90;;;;;;5030581;28;21033;-73
2022/03/04 06:35:17;;;;;;;19.85;15.40;;;9.30;99.90;;;;;;5030601;28;20112;-73
2022/03/04 06:37:43;;;;;;;21.80;14.93;;;9.30;99.90;;;;;;5030242;28;20490;-72
2022/03/04 06:40:10;;;;;;;19.33;14.73;;;9.40;99.90;;;;;;5030713;28;20117;-72
2022/03/04 06:42:36;;;;;;;20.77;15.55;;;9.60;99.90;;;;;;5031620;28;20034;-72
2022/03/04 06:45:01;;;;;;;22.10;14.65;;;9.50;99.90;;;;;;5031336;28;20379;-72
2022/03/04 06:47:27;;;;;;;18.00;14.50;;;9.60;99.90;;;;;;5030023;28;20038;-72
2022/03/04 06:49:53;;;;;;;17.48;14.05;;;9.60;99.90;;;;;;5029640;28;20024;-71
2022/03/04 06:52:21;;;;;;;19.08;14.70;;;9.70;99.90;;;;;;5030118;28;20406;-72
2022/03/04 06:54:48;;;;;;;20.83;15.50;;;9.80;99.90;;;;;;5031166;28;20443;-72
2022/03/04 06:57:14;;;;;;;30.33;21.90;;;9.90;99.90;;;;;;5031262;28;20108;-72
2022/03/04 06:59:39;;;;;;;38.70;26.25;;;9.50;99.90;;;;;;5029931;28;20029;-72
2022/03/04 07:02:06;;;;;;;37.70;26.73;;;9.10;99.90;;;;;;5029475;28;20498;-72
2022/03/04 07:04:32;;;;;;;32.90;25.15;;;8.90;99.90;;;;;;5029589;28;20032;-72
2022/03/04 07:06:58;;;;;;;32.28;23.23;;;8.50;99.90;;;;;;5029570;28;20483;-72
2022/03/04 07:09:24;;;;;;;30.85;21.95;;;8.30;99.90;;;;;;5031762;28;20025;-72
2022/03/04 07:11:49;;;;;;;31.42;22.25;;;8.20;99.90;;;;;;5029489;28;20029;-72
2022/03/04 07:14:15;;;;;;;28.42;22.33;;;8.20;99.90;;;;;;5028955;28;20033;-72
2022/03/04 07:16:41;;;;;;;36.15;25.23;;;8.30;99.90;;;;;;5029193;28;20036;-72
2022/03/04 07:19:07;;;;;;;35.53;26.33;;;8.30;99.90;;;;;;5029337;28;20108;-72
2022/03/04 07:21:33;;;;;;;33.78;26.42;;;8.30;99.90;;;;;;5031289;28;20028;-72
2022/03/04 07:23:59;;;;;;;32.55;25.90;;;8.40;99.90;;;;;;5029091;28;20033;-72
2022/03/04 07:26:24;;;;;;;35.58;26.00;;;8.30;99.90;;;;;;5029328;28;20080;-72
2022/03/04 07:28:50;;;;;;;33.72;25.73;;;8.50;99.90;;;;;;5028909;28;20082;-72
2022/03/04 07:31:16;;;;;;;30.58;24.73;;;8.60;99.90;;;;;;5028935;28;20108;-71
2022/03/04 07:33:42;;;;;;;30.40;23.95;;;8.80;99.90;;;;;;5030522;28;20034;-71
2022/03/04 07:36:08;;;;;;;29.27;24.13;;;8.90;99.90;;;;;;5030805;28;20037;-70
2022/03/04 07:38:34;;;;;;;30.02;24.15;;;9.00;99.90;;;;;;5028392;28;20025;-74
2022/03/04 07:41:00;;;;;;;30.35;22.35;;;9.20;99.90;;;;;;5027089;28;20139;-75
2022/03/04 07:43:26;;;;;;;29.27;21.70;;;9.20;99.90;;;;;;5029202;28;20485;-75
2022/03/04 07:45:52;;;;;;;25.77;19.73;;;9.30;99.90;;;;;;5032962;28;20057;-74
2022/03/04 07:48:18;;;;;;;25.77;20.38;;;9.40;99.90;;;;;;5034219;28;20115;-74
2022/03/04 07:50:44;;;;;;;26.85;21.70;;;9.40;99.90;;;;;;5032544;28;20167;-74
2022/03/04 07:53:10;;;;;;;31.50;21.75;;;9.50;99.90;;;;;;5032034;28;20040;-74
2022/03/04 07:55:36;;;;;;;28.00;21.23;;;9.60;99.90;;;;;;5030922;28;20026;-74
2022/03/04 07:58:01;;;;;;;30.45;22.13;;;9.80;99.90;;;;;;5032292;28;20376;-74
2022/03/04 08:00:27;;;;;;;28.75;22.48;;;9.80;99.90;;;;;;5033962;28;20064;-74
2022/03/04 08:02:54;;;;;;;30.58;23.92;;;10.00;99.90;;;;;;5031187;28;20041;-74
2022/03/04 08:05:21;;;;;;;27.55;22.02;;;10.10;99.90;;;;;;5032160;28;20037;-74
2022/03/04 08:07:47;;;;;;;29.65;22.08;;;10.20;99.90;;;;;;5031905;28;20052;-75
2022/03/04 08:10:16;;;;;;;23.10;19.30;;;10.40;99.90;;;;;;5031903;28;20018;-75
2022/03/04 08:12:42;;;;;;;26.90;20.38;;;10.60;99.90;;;;;;5033762;28;20029;-74
2022/03/04 08:15:10;;;;;;;23.58;19.60;;;10.70;99.90;;;;;;5032721;28;20034;-73
2022/03/04 08:17:39;;;;;;;25.60;19.20;;;10.70;99.90;;;;;;5031660;28;20037;-74
2022/03/04 08:20:06;;;;;;;24.98;18.80;;;10.90;99.90;;;;;;5030920;28;20107;-76
2022/03/04 08:22:32;;;;;;;25.85;19.40;;;11.10;99.90;;;;;;5030608;28;20211;-75
2022/03/04 08:24:57;;;;;;;24.17;19.27;;;11.20;99.90;;;;;;5032181;28;20033;-74
2022/03/04 08:27:23;;;;;;;26.42;19.15;;;11.50;99.90;;;;;;5033850;28;20045;-74
2022/03/04 08:29:50;;;;;;;24.33;17.27;;;11.60;99.90;;;;;;5031363;28;20029;-76
2022/03/04 08:32:16;;;;;;;21.88;16.45;;;12.00;99.90;;;;;;5030412;28;20025;-82
2022/03/04 08:34:42;;;;;;;28.10;18.02;;;12.40;99.90;;;;;;5031155;28;20059;-75
2022/03/04 08:37:08;;;;;;;20.48;15.63;;;12.70;99.90;;;;;;5030799;28;20383;-74
2022/03/04 08:39:34;;;;;;;19.70;14.25;;;14.20;99.90;;;;;;5034128;28;20140;-77
2022/03/04 08:42:00;;;;;;;16.38;13.90;;;16.50;98.60;;;;;;5031465;28;20128;-78
2022/03/04 08:44:25;;;;;;;22.33;15.18;;;19.60;91.50;;;;;;5030923;28;20025;-79
2022/03/04 08:46:51;;;;;;;19.38;13.80;;;21.90;80.60;;;;;;5029248;28;20124;-78
2022/03/04 08:49:19;;;;;;;17.48;14.13;;;23.40;71.40;;;;;;5029908;28;20115;-78
2022/03/04 08:51:45;;;;;;;18.58;13.70;;;24.20;66.20;;;;;;5032857;28;20017;-78
2022/03/04 08:54:11;;;;;;;14.15;12.30;;;25.20;63.10;;;;;;5028131;28;20065;-79
2022/03/04 08:56:37;;;;;;;16.02;12.55;;;25.50;60.70;;;;;;5029296;28;20059;-79
2022/03/04 08:59:03;;;;;;;20.58;11.48;;;25.90;59.70;;;;;;5028844;28;20383;-79
2022/03/04 09:01:29;;;;;;;16.77;10.05;;;26.20;58.50;;;;;;5027847;28;20029;-78
2022/03/04 09:03:55;;;;;;;15.90;9.05;;;26.30;59.10;;;;;;5028851;28;20029;-78
2022/03/04 09:06:21;;;;;;;11.63;8.43;;;26.90;57.80;;;;;;5035548;28;20037;-78
2022/03/04 09:08:47;;;;;;;10.60;6.15;;;26.90;56.40;;;;;;5030837;28;20079;-78
2022/03/04 09:11:12;;;;;;;11.25;7.05;;;27.40;54.60;;;;;;5033361;28;20126;-78
2022/03/04 09:13:38;;;;;;;8.55;4.32;;;27.90;53.20;;;;;;5027555;28;20064;-78
2022/03/04 09:16:04;;;;;;;5.57;2.90;;;28.40;51.90;;;;;;5031993;28;20392;-76
2022/03/04 09:18:30;;;;;;;4.90;2.90;;;27.80;50.60;;;;;;5036650;28;20565;-75
2022/03/04 09:20:56;;;;;;;5.60;3.08;;;28.30;49.20;;;;;;5033370;28;20080;-75
2022/03/04 09:23:22;;;;;;;6.47;3.30;;;28.40;48.80;;;;;;5033328;28;20052;-75
2022/03/04 09:25:48;;;;;;;5.35;2.90;;;28.50;47.80;;;;;;5029636;28;20029;-76
2022/03/04 09:28:15;;;;;;;4.28;2.60;;;28.50;46.80;;;;;;5033560;28;20021;-75
2022/03/04 09:30:41;;;;;;;5.90;3.13;;;28.70;47.10;;;;;;5028817;28;20040;-75
2022/03/04 09:33:11;;;;;;;6.43;3.00;;;28.30;46.90;;;;;;5035099;28;20445;-75
2022/03/04 09:35:39;;;;;;;5.50;2.97;;;28.70;46.60;;;;;;5034293;28;20033;-75
2022/03/04 09:38:05;;;;;;;6.38;2.80;;;29.50;46.80;;;;;;5032523;28;20060;-75
2022/03/04 09:40:32;;;;;;;5.65;3.10;;;29.50;45.80;;;;;;5029961;28;20422;-76
2022/03/04 09:42:58;;;;;;;7.10;3.17;;;29.40;44.50;;;;;;5032901;28;20076;-75
2022/03/04 09:45:25;;;;;;;5.05;2.58;;;29.70;43.80;;;;;;5036604;28;20030;-75
2022/03/04 09:47:51;;;;;;;5.18;2.72;;;29.70;43.10;;;;;;5033540;28;20065;-75
2022/03/04 09:50:17;;;;;;;7.38;3.50;;;30.10;42.20;;;;;;5034228;28;20033;-75
2022/03/04 09:52:46;;;;;;;7.90;2.80;;;29.80;41.30;;;;;;5021285;28;20040;-75
2022/03/04 09:55:12;;;;;;;7.28;3.10;;;30.00;42.70;;;;;;5032164;28;20549;-75
2022/03/04 09:57:40;;;;;;;5.45;2.83;;;30.20;42.00;;;;;;5030103;28;20410;-75
2022/03/04 10:00:11;;;;;;;6.45;2.90;;;30.30;41.20;;;;;;5030866;28;20013;-76
2022/03/04 10:02:40;;;;;;;8.43;3.30;;;30.40;41.80;;;;;;5028705;28;20049;-75
2022/03/04 10:05:09;;;;;;;8.57;3.50;;;30.40;39.70;;;;;;5028546;28;20525;-77
2022/03/04 10:07:40;;;;;;;9.15;3.40;;;30.20;38.90;;;;;;5026169;28;20044;-78
2022/03/04 10:10:17;;;;;;;10.95;3.30;;;29.80;39.10;;;;;;5021016;28;20032;-77
2022/03/04 10:12:57;;;;;;;10.98;3.65;;;30.00;38.60;;;;;;5038547;22;20071;-67
2022/03/04 10:15:25;;;;;;;7.18;3.60;;;29.90;38.60;;;;;;5046447;28;20041;-67
2022/03/04 10:18:00;;;;;;;8.40;3.50;;;29.80;38.80;;;;;;5044242;28;20033;-67
2022/03/04 10:20:38;;;;;;;7.55;3.40;;;29.60;38.50;;;;;;5044308;28;20139;-66
2022/03/04 10:23:15;;;;;;;7.03;3.42;;;28.90;39.10;;;;;;5042731;28;20508;-67
2022/03/04 10:25:47;;;;;;;6.10;3.63;;;28.30;39.90;;;;;;5042383;28;20029;-67
2022/03/04 10:28:13;;;;;;;7.22;3.80;;;26.90;41.20;;;;;;5046755;28;20021;-67
2022/03/04 10:30:44;;;;;;;6.90;3.83;;;24.50;43.00;;;;;;5046380;28;20108;-67
2022/03/04 10:33:18;;;;;;;6.68;3.88;;;22.70;45.10;;;;;;5047548;28;20040;-67
2022/03/04 10:35:45;;;;;;;6.68;3.72;;;21.90;47.10;;;;;;5042135;28;20029;-66
2022/03/04 10:38:22;;;;;;;9.90;3.90;;;21.30;48.70;;;;;;5041889;28;20171;-66
2022/03/04 10:40:48;;;;;;;9.85;4.57;;;20.90;49.40;;;;;;5042157;28;20037;-67
2022/03/04 10:43:21;;;;;;;8.60;4.05;;;20.60;49.90;;;;;;5043423;28;20033;-67
2022/03/04 10:45:47;;;;;;;;;;;20.40;50.70;;;;;;5045356;28;20049;-67
2022/03/04 10:48:20;;;;;;;10.77;4.43;;;20.40;51.20;;;;;;5046745;28;19913;-66
2022/03/04 10:50:51;;;;;;;9.75;4.30;;;20.20;51.10;;;;;;5044007;28;20032;-66
2022/03/04 10:53:22;;;;;;;7.70;4.55;;;19.90;51.30;;;;;;5043625;28;20033;-67
2022/03/04 10:55:55;;;;;;;9.30;4.82;;;19.80;52.00;;;;;;5043275;28;20043;-67
2022/03/04 10:58:28;;;;;;;14.35;4.35;;;19.70;52.90;;;;;;5042708;28;20076;-67
2022/03/04 11:01:12;;;;;;;10.50;4.90;;;19.70;52.50;;;;;;5043837;28;20044;-66
2022/03/04 11:03:40;;;;;;;13.25;4.55;;;19.60;52.40;;;;;;5044268;28;20056;-67
2022/03/04 11:06:08;;;;;;;9.90;4.60;;;19.50;52.50;;;;;;5044150;28;20470;-67
2022/03/04 11:08:35;;;;;;;8.88;4.10;;;19.50;53.20;;;;;;5040951;28;20033;-66
2022/03/04 11:11:03;;;;;;;7.90;4.53;;;19.50;53.20;;;;;;5042700;28;20029;-66
2022/03/04 11:13:34;;;;;;;8.48;4.18;;;19.40;53.30;;;;;;5043060;28;20132;-66
2022/03/04 11:16:01;;;;;;;9.70;4.43;;;19.30;53.70;;;;;;5043079;28;20465;-65
2022/03/04 11:18:27;;;;;;;10.15;4.28;;;19.40;53.20;;;;;;5047456;28;20033;-65
2022/03/04 11:20:56;;;;;;;9.90;4.78;;;19.30;52.50;;;;;;5042637;28;20403;-65
2022/03/04 11:23:29;;;;;;;7.60;4.00;;;19.40;53.10;;;;;;5041784;28;20091;-66
2022/03/04 11:25:59;;;;;;;11.23;4.65;;;19.20;52.50;;;;;;5044992;28;20051;-66
2022/03/04 11:28:39;;;;;;;7.70;3.70;;;19.30;51.90;;;;;;5042695;28;20037;-66
2022/03/04 11:31:10;;;;;;;8.20;4.22;;;19.30;51.30;;;;;;5035828;28;20033;-66
2022/03/04 11:33:44;;;;;;;6.13;3.42;;;19.30;52.60;;;;;;5047033;28;20423;-67
2022/03/04 11:36:17;;;;;;;;;;;19.30;52.70;;;;;;5048315;28;20037;-67
2022/03/04 11:38:48;;;;;;;7.32;3.92;;;19.40;52.10;;;;;;5041800;28;19908;-67
2022/03/04 11:41:31;;;;;;;6.03;3.67;;;19.40;52.30;;;;;;5042364;28;20052;-67
2022/03/04 11:44:12;;;;;;;7.22;3.95;;;19.40;52.80;;;;;;5046256;28;20476;-68
2022/03/04 11:47:00;;;;;;;6.50;3.90;;;19.40;52.90;;;;;;5046149;28;20029;-68
2022/03/04 11:49:32;;;;;;;7.47;3.90;;;19.50;52.70;;;;;;5047220;28;20075;-70
2022/03/04 11:52:19;;;;;;;6.28;4.05;;;19.60;52.70;;;;;;5046896;28;20041;-69
2022/03/04 11:55:09;;;;;;;7.88;4.10;;;19.60;52.60;;;;;;5038624;28;20084;-70
2022/03/04 11:57:38;;;;;;;8.85;4.25;;;19.60;54.20;;;;;;5062507;28;20086;-72
2022/03/04 12:00:10;;;;;;;9.73;3.70;;;19.70;51.30;;;;;;5046635;28;20045;-71
2022/03/04 12:02:38;;;;;;;7.10;4.10;;;19.70;51.70;;;;;;5044590;28;20091;-69
2022/03/04 12:05:22;;;;;;;7.38;3.72;;;19.90;52.30;;;;;;5048652;28;20041;-71
2022/03/04 12:08:06;;;;;;;;;;;20.00;51.70;;;;;;5047961;28;20071;-69
2022/03/04 12:10:50;;;;;;;6.80;3.33;;;20.20;51.60;;;;;;5037873;28;19921;-69
2022/03/04 12:13:20;;;;;;;;;;;20.50;49.80;;;;;;5043460;28;20127;-68
2022/03/04 12:15:50;;;;;;;6.97;3.38;;;20.50;49.30;;;;;;5034490;28;19916;-68
2022/03/04 12:18:39;;;;;;;7.78;3.78;;;20.80;49.40;;;;;;5037599;28;20037;-66
2022/03/04 12:21:13;;;;;;;6.10;3.40;;;20.70;49.10;;;;;;5041567;28;20560;-66
2022/03/04 12:23:42;;;;;;;9.07;3.63;;;20.60;49.80;;;;;;5039359;28;20044;-67
2022/03/04 12:26:20;;;;;;;7.35;3.47;;;20.60;49.80;;;;;;5045916;28;20417;-67
2022/03/04 12:28:49;;;;;;;7.63;3.70;;;20.60;49.40;;;;;;5046580;28;20392;-66
2022/03/04 12:31:18;;;;;;;7.07;3.50;;;21.10;49.00;;;;;;5047329;28;20033;-67
2022/03/04 12:33:54;;;;;;;7.05;3.70;;;22.50;47.10;;;;;;5045524;28;20078;-67
2022/03/04 12:36:21;;;;;;;6.00;3.60;;;22.40;47.40;;;;;;5045932;28;20056;-67
2022/03/04 12:38:54;;;;;;;6.45;3.50;;;22.10;47.40;;;;;;5044596;28;20065;-67
2022/03/04 12:41:23;;;;;;;6.85;3.38;;;21.30;47.50;;;;;;5047576;28;20040;-67